Terminal Aerodrome Forecast
Issued by NWS

Home | Current Version | Previous Version | Graphics & Text | Print | Product List | Glossary On
Versions: 1 2 3 4 5 6 7 8 9 10 11 12 13 14 15 16 17 18 19 20 21 22 23 24
000
FTUS42 KMHX 060955 AAA
TAFPGV
TAF AMD
KPGV 060955Z 0610/0706 02015G21KT P6SM SCT025 BKN060
     FM061200 03012G18KT P6SM FEW025 SCT040
     FM061800 03008KT P6SM SCT040
     FM070000 03003KT P6SM SKC
      AMD LTD TO CLD VIS AND WIND=

USA.gov is the U.S. government's official web portal to all federal, state and local government web resources and services.